Terminal Aerodrome Forecast
Issued by NWS

Home | Current Version | Previous Version | Text Only | Print | Product List | Glossary On
Versions: 1 2 3 4 5 6 7 8 9 10 11 12 13 14 15 16 17
235
FTUS45 KFGZ 252323 AAA
TAFPGA
TAF AMD
KPGA 252323Z 2523/2624 VRB06KT P6SM SCT100
     FM261800 31008KT P6SM SCT090 BKN150=

USA.gov is the U.S. government's official web portal to all federal, state and local government web resources and services.